sensor_id;sensor_type;location;lat;lon;timestamp;P1;durP1;ratioP1;P2;durP2;ratioP2
75787;SDS011;64406;50.024;14.492;2023-04-29T00:01:08;17.65;;;10.55;;
75787;SDS011;64406;50.024;14.492;2023-04-29T00:03:34;13.38;;;9.40;;
75787;SDS011;64406;50.024;14.492;2023-04-29T00:05:59;16.85;;;10.32;;
75787;SDS011;64406;50.024;14.492;2023-04-29T00:08:25;13.40;;;9.20;;
75787;SDS011;64406;50.024;14.492;2023-04-29T00:10:51;14.55;;;9.93;;
75787;SDS011;64406;50.024;14.492;2023-04-29T00:13:17;21.02;;;10.73;;
75787;SDS011;64406;50.024;14.492;2023-04-29T00:15:43;14.90;;;10.27;;
75787;SDS011;64406;50.024;14.492;2023-04-29T00:18:08;17.27;;;10.90;;
75787;SDS011;64406;50.024;14.492;2023-04-29T00:20:34;14.90;;;9.65;;
75787;SDS011;64406;50.024;14.492;2023-04-29T00:23:02;16.92;;;10.73;;
75787;SDS011;64406;50.024;14.492;2023-04-29T00:25:28;15.32;;;9.93;;
75787;SDS011;64406;50.024;14.492;2023-04-29T00:27:53;17.23;;;10.88;;
75787;SDS011;64406;50.024;14.492;2023-04-29T00:30:19;14.02;;;9.65;;
75787;SDS011;64406;50.024;14.492;2023-04-29T00:32:45;17.10;;;10.93;;
75787;SDS011;64406;50.024;14.492;2023-04-29T00:35:10;14.70;;;9.63;;
75787;SDS011;64406;50.024;14.492;2023-04-29T00:37:36;15.38;;;9.85;;
75787;SDS011;64406;50.024;14.492;2023-04-29T00:40:02;15.48;;;10.55;;
75787;SDS011;64406;50.024;14.492;2023-04-29T00:42:29;16.50;;;9.82;;
75787;SDS011;64406;50.024;14.492;2023-04-29T00:44:58;17.75;;;10.77;;
75787;SDS011;64406;50.024;14.492;2023-04-29T00:47:23;17.70;;;10.85;;
75787;SDS011;64406;50.024;14.492;2023-04-29T00:49:49;16.15;;;10.05;;
75787;SDS011;64406;50.024;14.492;2023-04-29T00:52:15;15.90;;;10.27;;
75787;SDS011;64406;50.024;14.492;2023-04-29T00:54:42;12.80;;;9.65;;
75787;SDS011;64406;50.024;14.492;2023-04-29T00:57:08;16.55;;;11.32;;
75787;SDS011;64406;50.024;14.492;2023-04-29T00:59:34;14.32;;;9.75;;
75787;SDS011;64406;50.024;14.492;2023-04-29T01:02:00;16.92;;;9.98;;
75787;SDS011;64406;50.024;14.492;2023-04-29T01:04:29;18.95;;;10.75;;
75787;SDS011;64406;50.024;14.492;2023-04-29T01:12:32;16.58;;;10.43;;
75787;SDS011;64406;50.024;14.492;2023-04-29T01:17:49;14.55;;;9.82;;
75787;SDS011;64406;50.024;14.492;2023-04-29T01:20:25;15.05;;;10.10;;
75787;SDS011;64406;50.024;14.492;2023-04-29T01:22:51;15.93;;;10.25;;
75787;SDS011;64406;50.024;14.492;2023-04-29T01:25:17;16.20;;;10.93;;
75787;SDS011;64406;50.024;14.492;2023-04-29T01:27:56;16.23;;;10.35;;
75787;SDS011;64406;50.024;14.492;2023-04-29T01:30:37;15.30;;;9.80;;
75787;SDS011;64406;50.024;14.492;2023-04-29T01:41:09;18.63;;;12.18;;
75787;SDS011;64406;50.024;14.492;2023-04-29T01:44:07;21.65;;;13.15;;
75787;SDS011;64406;50.024;14.492;2023-04-29T01:46:39;21.23;;;12.75;;
75787;SDS011;64406;50.024;14.492;2023-04-29T01:49:06;20.88;;;12.23;;
75787;SDS011;64406;50.024;14.492;2023-04-29T01:51:32;21.70;;;13.55;;
75787;SDS011;64406;50.024;14.492;2023-04-29T01:53:58;19.85;;;12.20;;
75787;SDS011;64406;50.024;14.492;2023-04-29T01:56:24;22.63;;;13.98;;
75787;SDS011;64406;50.024;14.492;2023-04-29T01:58:50;20.83;;;12.88;;
75787;SDS011;64406;50.024;14.492;2023-04-29T02:01:15;23.25;;;13.65;;
75787;SDS011;64406;50.024;14.492;2023-04-29T02:03:41;22.90;;;14.20;;
75787;SDS011;64406;50.024;14.492;2023-04-29T02:06:07;24.48;;;13.07;;
75787;SDS011;64406;50.024;14.492;2023-04-29T02:08:32;28.88;;;15.40;;
75787;SDS011;64406;50.024;14.492;2023-04-29T02:10:58;29.10;;;15.02;;
75787;SDS011;64406;50.024;14.492;2023-04-29T02:13:24;29.10;;;15.18;;
75787;SDS011;64406;50.024;14.492;2023-04-29T02:15:50;26.35;;;14.65;;
75787;SDS011;64406;50.024;14.492;2023-04-29T02:18:16;30.33;;;17.20;;
75787;SDS011;64406;50.024;14.492;2023-04-29T02:20:41;31.25;;;16.85;;
75787;SDS011;64406;50.024;14.492;2023-04-29T02:23:07;26.88;;;15.10;;
75787;SDS011;64406;50.024;14.492;2023-04-29T02:25:33;27.77;;;15.85;;
75787;SDS011;64406;50.024;14.492;2023-04-29T02:27:59;25.85;;;14.60;;
75787;SDS011;64406;50.024;14.492;2023-04-29T02:30:25;26.00;;;15.00;;
75787;SDS011;64406;50.024;14.492;2023-04-29T02:32:50;23.98;;;14.35;;
75787;SDS011;64406;50.024;14.492;2023-04-29T02:35:17;24.40;;;13.82;;
75787;SDS011;64406;50.024;14.492;2023-04-29T02:37:42;27.77;;;15.68;;
75787;SDS011;64406;50.024;14.492;2023-04-29T02:40:09;23.70;;;13.68;;
75787;SDS011;64406;50.024;14.492;2023-04-29T02:42:35;23.00;;;14.13;;
75787;SDS011;64406;50.024;14.492;2023-04-29T02:45:02;25.77;;;14.13;;
75787;SDS011;64406;50.024;14.492;2023-04-29T02:47:28;24.92;;;14.15;;
75787;SDS011;64406;50.024;14.492;2023-04-29T02:49:53;26.08;;;15.07;;
75787;SDS011;64406;50.024;14.492;2023-04-29T02:52:19;23.30;;;14.25;;
75787;SDS011;64406;50.024;14.492;2023-04-29T02:54:45;22.40;;;14.60;;
75787;SDS011;64406;50.024;14.492;2023-04-29T02:57:10;27.17;;;15.25;;
75787;SDS011;64406;50.024;14.492;2023-04-29T02:59:36;23.42;;;14.18;;
75787;SDS011;64406;50.024;14.492;2023-04-29T03:02:02;22.65;;;14.40;;
75787;SDS011;64406;50.024;14.492;2023-04-29T03:04:28;23.98;;;14.48;;
75787;SDS011;64406;50.024;14.492;2023-04-29T03:06:54;19.73;;;12.85;;
75787;SDS011;64406;50.024;14.492;2023-04-29T03:09:21;20.00;;;12.93;;
75787;SDS011;64406;50.024;14.492;2023-04-29T03:11:47;22.58;;;13.15;;
75787;SDS011;64406;50.024;14.492;2023-04-29T03:14:14;20.80;;;12.75;;
75787;SDS011;64406;50.024;14.492;2023-04-29T03:16:39;21.67;;;13.00;;
75787;SDS011;64406;50.024;14.492;2023-04-29T03:19:05;28.02;;;14.90;;
75787;SDS011;64406;50.024;14.492;2023-04-29T03:21:31;29.35;;;15.05;;
75787;SDS011;64406;50.024;14.492;2023-04-29T03:23:57;23.23;;;13.68;;
75787;SDS011;64406;50.024;14.492;2023-04-29T03:26:22;23.98;;;13.85;;
75787;SDS011;64406;50.024;14.492;2023-04-29T03:28:49;26.10;;;14.27;;
75787;SDS011;64406;50.024;14.492;2023-04-29T03:31:15;20.48;;;11.85;;
75787;SDS011;64406;50.024;14.492;2023-04-29T03:33:41;23.67;;;13.65;;
75787;SDS011;64406;50.024;14.492;2023-04-29T03:36:07;22.33;;;12.98;;
75787;SDS011;64406;50.024;14.492;2023-04-29T03:38:33;22.85;;;12.95;;
75787;SDS011;64406;50.024;14.492;2023-04-29T03:40:59;21.52;;;13.35;;
75787;SDS011;64406;50.024;14.492;2023-04-29T03:43:25;22.63;;;13.68;;
75787;SDS011;64406;50.024;14.492;2023-04-29T03:45:51;23.23;;;12.68;;
75787;SDS011;64406;50.024;14.492;2023-04-29T03:48:17;18.52;;;12.85;;
75787;SDS011;64406;50.024;14.492;2023-04-29T03:50:44;22.92;;;13.70;;
75787;SDS011;64406;50.024;14.492;2023-04-29T03:53:10;20.35;;;13.02;;
75787;SDS011;64406;50.024;14.492;2023-04-29T03:55:36;24.10;;;13.68;;
75787;SDS011;64406;50.024;14.492;2023-04-29T03:58:02;24.13;;;14.00;;
75787;SDS011;64406;50.024;14.492;2023-04-29T04:00:31;20.08;;;13.98;;
75787;SDS011;64406;50.024;14.492;2023-04-29T04:02:57;22.38;;;13.35;;
75787;SDS011;64406;50.024;14.492;2023-04-29T04:05:23;22.85;;;12.60;;
75787;SDS011;64406;50.024;14.492;2023-04-29T04:07:52;19.20;;;12.35;;
75787;SDS011;64406;50.024;14.492;2023-04-29T04:10:18;20.23;;;12.90;;
75787;SDS011;64406;50.024;14.492;2023-04-29T04:12:44;18.55;;;13.18;;
75787;SDS011;64406;50.024;14.492;2023-04-29T04:15:11;21.73;;;13.60;;
75787;SDS011;64406;50.024;14.492;2023-04-29T04:17:37;24.00;;;14.20;;
75787;SDS011;64406;50.024;14.492;2023-04-29T04:20:02;20.73;;;13.20;;
75787;SDS011;64406;50.024;14.492;2023-04-29T04:22:29;19.95;;;13.73;;
75787;SDS011;64406;50.024;14.492;2023-04-29T04:24:55;20.15;;;12.95;;
75787;SDS011;64406;50.024;14.492;2023-04-29T04:27:21;22.60;;;13.65;;
75787;SDS011;64406;50.024;14.492;2023-04-29T04:29:47;24.83;;;14.52;;
75787;SDS011;64406;50.024;14.492;2023-04-29T04:32:12;19.35;;;13.40;;
75787;SDS011;64406;50.024;14.492;2023-04-29T04:34:38;20.40;;;13.35;;
75787;SDS011;64406;50.024;14.492;2023-04-29T04:37:04;20.83;;;13.30;;
75787;SDS011;64406;50.024;14.492;2023-04-29T04:39:30;19.25;;;12.95;;
75787;SDS011;64406;50.024;14.492;2023-04-29T04:41:56;20.00;;;12.52;;
75787;SDS011;64406;50.024;14.492;2023-04-29T04:44:22;18.88;;;12.82;;
75787;SDS011;64406;50.024;14.492;2023-04-29T04:46:49;18.98;;;12.32;;
75787;SDS011;64406;50.024;14.492;2023-04-29T04:49:15;20.38;;;12.88;;
75787;SDS011;64406;50.024;14.492;2023-04-29T04:51:44;16.98;;;11.70;;
75787;SDS011;64406;50.024;14.492;2023-04-29T04:54:10;17.13;;;11.93;;
75787;SDS011;64406;50.024;14.492;2023-04-29T04:56:36;19.73;;;12.90;;
75787;SDS011;64406;50.024;14.492;2023-04-29T04:59:02;17.45;;;11.68;;
75787;SDS011;64406;50.024;14.492;2023-04-29T05:01:28;17.60;;;12.52;;
75787;SDS011;64406;50.024;14.492;2023-04-29T05:03:54;20.30;;;13.10;;
75787;SDS011;64406;50.024;14.492;2023-04-29T05:06:20;23.33;;;13.10;;
75787;SDS011;64406;50.024;14.492;2023-04-29T05:08:45;19.55;;;12.90;;
75787;SDS011;64406;50.024;14.492;2023-04-29T05:11:14;19.30;;;12.48;;
75787;SDS011;64406;50.024;14.492;2023-04-29T05:13:41;19.23;;;12.48;;
75787;SDS011;64406;50.024;14.492;2023-04-29T05:16:07;20.88;;;11.82;;
75787;SDS011;64406;50.024;14.492;2023-04-29T05:18:32;18.45;;;11.75;;
75787;SDS011;64406;50.024;14.492;2023-04-29T05:20:59;19.13;;;12.20;;
75787;SDS011;64406;50.024;14.492;2023-04-29T05:23:24;17.88;;;11.57;;
75787;SDS011;64406;50.024;14.492;2023-04-29T05:25:50;16.58;;;11.82;;
75787;SDS011;64406;50.024;14.492;2023-04-29T05:28:16;16.48;;;11.07;;
75787;SDS011;64406;50.024;14.492;2023-04-29T05:30:42;18.40;;;11.68;;
75787;SDS011;64406;50.024;14.492;2023-04-29T05:33:07;19.30;;;11.85;;
75787;SDS011;64406;50.024;14.492;2023-04-29T05:35:33;17.15;;;10.98;;
75787;SDS011;64406;50.024;14.492;2023-04-29T05:37:59;15.07;;;10.35;;
75787;SDS011;64406;50.024;14.492;2023-04-29T05:40:24;17.30;;;11.88;;
75787;SDS011;64406;50.024;14.492;2023-04-29T05:42:50;16.13;;;11.73;;
75787;SDS011;64406;50.024;14.492;2023-04-29T05:45:16;18.02;;;12.77;;
75787;SDS011;64406;50.024;14.492;2023-04-29T05:47:41;20.88;;;12.00;;
75787;SDS011;64406;50.024;14.492;2023-04-29T05:50:07;19.02;;;12.30;;
75787;SDS011;64406;50.024;14.492;2023-04-29T05:52:33;20.95;;;11.15;;
75787;SDS011;64406;50.024;14.492;2023-04-29T05:54:58;18.20;;;12.02;;
75787;SDS011;64406;50.024;14.492;2023-04-29T05:57:24;18.50;;;12.93;;
75787;SDS011;64406;50.024;14.492;2023-04-29T05:59:50;18.98;;;12.80;;
75787;SDS011;64406;50.024;14.492;2023-04-29T06:02:15;18.02;;;12.55;;
75787;SDS011;64406;50.024;14.492;2023-04-29T06:04:41;18.55;;;12.15;;
75787;SDS011;64406;50.024;14.492;2023-04-29T06:07:06;17.42;;;11.60;;
75787;SDS011;64406;50.024;14.492;2023-04-29T06:09:34;18.08;;;11.35;;
75787;SDS011;64406;50.024;14.492;2023-04-29T06:12:00;16.30;;;11.30;;
75787;SDS011;64406;50.024;14.492;2023-04-29T06:14:27;18.23;;;11.38;;
75787;SDS011;64406;50.024;14.492;2023-04-29T06:16:52;18.00;;;11.35;;
75787;SDS011;64406;50.024;14.492;2023-04-29T06:19:18;17.13;;;10.80;;
75787;SDS011;64406;50.024;14.492;2023-04-29T06:21:44;17.67;;;11.10;;
75787;SDS011;64406;50.024;14.492;2023-04-29T06:24:09;18.40;;;10.90;;
75787;SDS011;64406;50.024;14.492;2023-04-29T06:26:35;14.07;;;10.38;;
75787;SDS011;64406;50.024;14.492;2023-04-29T06:29:01;17.00;;;11.02;;
75787;SDS011;64406;50.024;14.492;2023-04-29T06:31:26;17.42;;;11.02;;
75787;SDS011;64406;50.024;14.492;2023-04-29T06:33:52;15.13;;;9.40;;
75787;SDS011;64406;50.024;14.492;2023-04-29T06:36:19;16.10;;;9.38;;
75787;SDS011;64406;50.024;14.492;2023-04-29T06:38:45;14.00;;;10.07;;
75787;SDS011;64406;50.024;14.492;2023-04-29T06:41:10;13.20;;;9.48;;
75787;SDS011;64406;50.024;14.492;2023-04-29T06:43:36;11.75;;;8.43;;
75787;SDS011;64406;50.024;14.492;2023-04-29T06:46:01;10.35;;;7.78;;
75787;SDS011;64406;50.024;14.492;2023-04-29T06:48:27;11.55;;;8.15;;
75787;SDS011;64406;50.024;14.492;2023-04-29T06:50:53;12.38;;;8.75;;
75787;SDS011;64406;50.024;14.492;2023-04-29T06:53:21;10.93;;;7.93;;
75787;SDS011;64406;50.024;14.492;2023-04-29T06:55:47;11.80;;;7.63;;
75787;SDS011;64406;50.024;14.492;2023-04-29T06:58:13;11.40;;;8.10;;
75787;SDS011;64406;50.024;14.492;2023-04-29T07:00:42;11.20;;;7.88;;
75787;SDS011;64406;50.024;14.492;2023-04-29T07:03:08;11.02;;;8.00;;
75787;SDS011;64406;50.024;14.492;2023-04-29T07:05:35;17.92;;;8.60;;
75787;SDS011;64406;50.024;14.492;2023-04-29T07:08:03;10.77;;;8.02;;
75787;SDS011;64406;50.024;14.492;2023-04-29T07:10:29;9.90;;;7.50;;
75787;SDS011;64406;50.024;14.492;2023-04-29T07:12:55;10.30;;;6.82;;
75787;SDS011;64406;50.024;14.492;2023-04-29T07:15:21;9.02;;;6.30;;
75787;SDS011;64406;50.024;14.492;2023-04-29T07:17:46;8.18;;;5.68;;
75787;SDS011;64406;50.024;14.492;2023-04-29T07:20:12;7.82;;;5.82;;
75787;SDS011;64406;50.024;14.492;2023-04-29T07:22:38;8.18;;;6.03;;
75787;SDS011;64406;50.024;14.492;2023-04-29T07:25:04;8.60;;;5.68;;
75787;SDS011;64406;50.024;14.492;2023-04-29T07:27:31;5.80;;;4.63;;
75787;SDS011;64406;50.024;14.492;2023-04-29T07:29:58;6.40;;;4.57;;
75787;SDS011;64406;50.024;14.492;2023-04-29T07:32:25;6.70;;;4.03;;
75787;SDS011;64406;50.024;14.492;2023-04-29T07:34:51;5.82;;;4.43;;
75787;SDS011;64406;50.024;14.492;2023-04-29T07:37:18;5.15;;;4.15;;
75787;SDS011;64406;50.024;14.492;2023-04-29T07:39:43;6.45;;;4.53;;
75787;SDS011;64406;50.024;14.492;2023-04-29T07:42:09;4.78;;;3.90;;
75787;SDS011;64406;50.024;14.492;2023-04-29T07:44:34;5.75;;;4.10;;
75787;SDS011;64406;50.024;14.492;2023-04-29T07:47:01;5.65;;;4.53;;
75787;SDS011;64406;50.024;14.492;2023-04-29T07:49:26;5.88;;;4.47;;
75787;SDS011;64406;50.024;14.492;2023-04-29T07:51:52;4.57;;;3.65;;
75787;SDS011;64406;50.024;14.492;2023-04-29T07:54:17;5.32;;;3.72;;
75787;SDS011;64406;50.024;14.492;2023-04-29T07:56:46;4.40;;;3.72;;
75787;SDS011;64406;50.024;14.492;2023-04-29T07:59:12;5.43;;;3.50;;
75787;SDS011;64406;50.024;14.492;2023-04-29T08:01:41;4.28;;;3.33;;
75787;SDS011;64406;50.024;14.492;2023-04-29T08:04:07;4.35;;;3.25;;
75787;SDS011;64406;50.024;14.492;2023-04-29T08:06:33;5.13;;;3.10;;
75787;SDS011;64406;50.024;14.492;2023-04-29T08:09:00;3.35;;;2.92;;
75787;SDS011;64406;50.024;14.492;2023-04-29T08:11:26;4.25;;;3.10;;
75787;SDS011;64406;50.024;14.492;2023-04-29T08:13:52;3.42;;;3.13;;
75787;SDS011;64406;50.024;14.492;2023-04-29T08:16:18;3.97;;;2.72;;
75787;SDS011;64406;50.024;14.492;2023-04-29T08:18:43;3.72;;;2.80;;
75787;SDS011;64406;50.024;14.492;2023-04-29T08:21:09;3.70;;;2.58;;
75787;SDS011;64406;50.024;14.492;2023-04-29T08:23:38;4.25;;;2.95;;
75787;SDS011;64406;50.024;14.492;2023-04-29T08:26:04;3.35;;;2.80;;
75787;SDS011;64406;50.024;14.492;2023-04-29T08:28:29;3.35;;;2.65;;
75787;SDS011;64406;50.024;14.492;2023-04-29T08:30:55;4.80;;;2.65;;
75787;SDS011;64406;50.024;14.492;2023-04-29T08:33:21;4.13;;;2.45;;
75787;SDS011;64406;50.024;14.492;2023-04-29T08:35:47;2.97;;;2.67;;
75787;SDS011;64406;50.024;14.492;2023-04-29T08:38:12;2.20;;;2.00;;
75787;SDS011;64406;50.024;14.492;2023-04-29T08:40:42;2.60;;;2.40;;
75787;SDS011;64406;50.024;14.492;2023-04-29T08:43:10;3.78;;;2.30;;
75787;SDS011;64406;50.024;14.492;2023-04-29T08:45:36;3.75;;;2.50;;
75787;SDS011;64406;50.024;14.492;2023-04-29T08:48:04;3.53;;;2.30;;
75787;SDS011;64406;50.024;14.492;2023-04-29T08:50:32;2.63;;;2.25;;
75787;SDS011;64406;50.024;14.492;2023-04-29T08:53:04;2.33;;;2.13;;
75787;SDS011;64406;50.024;14.492;2023-04-29T08:55:40;3.80;;;2.33;;
75787;SDS011;64406;50.024;14.492;2023-04-29T08:58:07;4.63;;;2.20;;
75787;SDS011;64406;50.024;14.492;2023-04-29T09:00:33;3.22;;;2.25;;
75787;SDS011;64406;50.024;14.492;2023-04-29T09:03:00;2.40;;;2.10;;
75787;SDS011;64406;50.024;14.492;2023-04-29T09:05:35;1.98;;;1.83;;
75787;SDS011;64406;50.024;14.492;2023-04-29T09:08:03;3.65;;;2.33;;
75787;SDS011;64406;50.024;14.492;2023-04-29T09:10:29;3.22;;;2.30;;
75787;SDS011;64406;50.024;14.492;2023-04-29T09:12:56;4.07;;;2.28;;
75787;SDS011;64406;50.024;14.492;2023-04-29T09:15:22;3.72;;;2.78;;
75787;SDS011;64406;50.024;14.492;2023-04-29T09:17:48;3.42;;;2.10;;
75787;SDS011;64406;50.024;14.492;2023-04-29T09:22:49;4.18;;;2.97;;
75787;SDS011;64406;50.024;14.492;2023-04-29T09:25:26;5.40;;;3.63;;
75787;SDS011;64406;50.024;14.492;2023-04-29T09:27:52;4.60;;;3.38;;
75787;SDS011;64406;50.024;14.492;2023-04-29T09:30:19;4.80;;;3.67;;
75787;SDS011;64406;50.024;14.492;2023-04-29T09:32:45;6.88;;;4.35;;
75787;SDS011;64406;50.024;14.492;2023-04-29T09:35:24;5.28;;;4.13;;
75787;SDS011;64406;50.024;14.492;2023-04-29T09:38:13;5.18;;;4.15;;
75787;SDS011;64406;50.024;14.492;2023-04-29T09:40:39;5.78;;;4.30;;
75787;SDS011;64406;50.024;14.492;2023-04-29T09:43:11;6.07;;;4.50;;
75787;SDS011;64406;50.024;14.492;2023-04-29T09:45:45;6.93;;;4.55;;
75787;SDS011;64406;50.024;14.492;2023-04-29T09:48:12;7.38;;;4.32;;
75787;SDS011;64406;50.024;14.492;2023-04-29T09:50:39;6.22;;;5.03;;
75787;SDS011;64406;50.024;14.492;2023-04-29T09:53:07;6.32;;;4.70;;
75787;SDS011;64406;50.024;14.492;2023-04-29T09:55:34;7.65;;;5.15;;
75787;SDS011;64406;50.024;14.492;2023-04-29T09:58:00;6.72;;;4.95;;
75787;SDS011;64406;50.024;14.492;2023-04-29T10:00:28;7.55;;;5.03;;
75787;SDS011;64406;50.024;14.492;2023-04-29T10:02:57;11.45;;;6.40;;
75787;SDS011;64406;50.024;14.492;2023-04-29T10:05:24;6.55;;;5.65;;
75787;SDS011;64406;50.024;14.492;2023-04-29T10:07:52;8.80;;;6.00;;
75787;SDS011;64406;50.024;14.492;2023-04-29T10:10:19;7.30;;;4.50;;
75787;SDS011;64406;50.024;14.492;2023-04-29T10:12:47;8.80;;;5.45;;
75787;SDS011;64406;50.024;14.492;2023-04-29T10:15:20;5.22;;;4.38;;
75787;SDS011;64406;50.024;14.492;2023-04-29T10:17:53;5.95;;;4.57;;
75787;SDS011;64406;50.024;14.492;2023-04-29T10:20:24;5.57;;;4.13;;
75787;SDS011;64406;50.024;14.492;2023-04-29T10:22:51;6.60;;;4.43;;
75787;SDS011;64406;50.024;14.492;2023-04-29T10:25:22;5.90;;;4.22;;
75787;SDS011;64406;50.024;14.492;2023-04-29T10:27:49;4.72;;;3.65;;
75787;SDS011;64406;50.024;14.492;2023-04-29T10:30:18;7.85;;;3.50;;
75787;SDS011;64406;50.024;14.492;2023-04-29T10:32:45;6.10;;;3.20;;
75787;SDS011;64406;50.024;14.492;2023-04-29T10:35:14;3.70;;;3.03;;
75787;SDS011;64406;50.024;14.492;2023-04-29T10:37:41;4.72;;;2.67;;
75787;SDS011;64406;50.024;14.492;2023-04-29T10:45:29;11.05;;;3.30;;
75787;SDS011;64406;50.024;14.492;2023-04-29T10:53:14;11.13;;;4.38;;
75787;SDS011;64406;50.024;14.492;2023-04-29T10:55:40;5.93;;;4.18;;
75787;SDS011;64406;50.024;14.492;2023-04-29T11:01:04;6.75;;;3.97;;
75787;SDS011;64406;50.024;14.492;2023-04-29T11:03:46;6.78;;;4.53;;
75787;SDS011;64406;50.024;14.492;2023-04-29T11:06:36;4.55;;;3.25;;
75787;SDS011;64406;50.024;14.492;2023-04-29T11:09:19;4.40;;;2.80;;
75787;SDS011;64406;50.024;14.492;2023-04-29T11:14:22;6.22;;;3.75;;
75787;SDS011;64406;50.024;14.492;2023-04-29T11:16:50;7.43;;;4.13;;
75787;SDS011;64406;50.024;14.492;2023-04-29T11:19:17;9.38;;;4.43;;
75787;SDS011;64406;50.024;14.492;2023-04-29T11:21:44;5.32;;;4.45;;
75787;SDS011;64406;50.024;14.492;2023-04-29T11:24:11;4.95;;;3.33;;
75787;SDS011;64406;50.024;14.492;2023-04-29T11:26:40;3.42;;;2.83;;
75787;SDS011;64406;50.024;14.492;2023-04-29T11:29:07;4.25;;;3.17;;
75787;SDS011;64406;50.024;14.492;2023-04-29T11:31:36;3.53;;;2.50;;
75787;SDS011;64406;50.024;14.492;2023-04-29T11:34:04;3.20;;;2.45;;
75787;SDS011;64406;50.024;14.492;2023-04-29T11:36:31;4.40;;;2.90;;
75787;SDS011;64406;50.024;14.492;2023-04-29T11:38:58;2.97;;;2.13;;
75787;SDS011;64406;50.024;14.492;2023-04-29T11:41:27;3.97;;;2.53;;
75787;SDS011;64406;50.024;14.492;2023-04-29T11:43:54;6.72;;;3.20;;
75787;SDS011;64406;50.024;14.492;2023-04-29T11:46:21;6.28;;;3.00;;
75787;SDS011;64406;50.024;14.492;2023-04-29T11:48:48;6.50;;;2.95;;
75787;SDS011;64406;50.024;14.492;2023-04-29T11:51:15;6.47;;;3.58;;
75787;SDS011;64406;50.024;14.492;2023-04-29T11:53:43;5.75;;;3.50;;
75787;SDS011;64406;50.024;14.492;2023-04-29T11:56:09;4.35;;;3.30;;
75787;SDS011;64406;50.024;14.492;2023-04-29T11:58:36;5.28;;;3.55;;
75787;SDS011;64406;50.024;14.492;2023-04-29T12:01:05;4.90;;;3.33;;
75787;SDS011;64406;50.024;14.492;2023-04-29T12:03:31;3.58;;;2.60;;
75787;SDS011;64406;50.024;14.492;2023-04-29T12:05:57;4.35;;;2.92;;
75787;SDS011;64406;50.024;14.492;2023-04-29T12:08:26;3.65;;;3.05;;
75787;SDS011;64406;50.024;14.492;2023-04-29T12:10:55;5.25;;;3.15;;
75787;SDS011;64406;50.024;14.492;2023-04-29T12:13:23;3.28;;;2.72;;
75787;SDS011;64406;50.024;14.492;2023-04-29T12:15:50;3.78;;;3.13;;
75787;SDS011;64406;50.024;14.492;2023-04-29T12:18:17;4.88;;;3.45;;
75787;SDS011;64406;50.024;14.492;2023-04-29T12:20:44;4.93;;;3.75;;
75787;SDS011;64406;50.024;14.492;2023-04-29T12:23:14;4.10;;;3.20;;
75787;SDS011;64406;50.024;14.492;2023-04-29T12:25:44;6.07;;;3.53;;
75787;SDS011;64406;50.024;14.492;2023-04-29T12:28:13;4.35;;;3.40;;
75787;SDS011;64406;50.024;14.492;2023-04-29T12:30:39;5.80;;;3.80;;
75787;SDS011;64406;50.024;14.492;2023-04-29T12:33:08;4.35;;;3.95;;
75787;SDS011;64406;50.024;14.492;2023-04-29T12:35:34;4.78;;;4.28;;
75787;SDS011;64406;50.024;14.492;2023-04-29T12:38:01;5.70;;;4.15;;
75787;SDS011;64406;50.024;14.492;2023-04-29T12:40:27;6.70;;;4.15;;
75787;SDS011;64406;50.024;14.492;2023-04-29T12:42:53;5.10;;;4.32;;
75787;SDS011;64406;50.024;14.492;2023-04-29T12:45:28;4.60;;;3.88;;
75787;SDS011;64406;50.024;14.492;2023-04-29T12:47:56;5.60;;;3.70;;
75787;SDS011;64406;50.024;14.492;2023-04-29T12:50:27;5.65;;;3.80;;
75787;SDS011;64406;50.024;14.492;2023-04-29T12:52:55;4.72;;;3.45;;
75787;SDS011;64406;50.024;14.492;2023-04-29T12:55:21;3.47;;;2.80;;
75787;SDS011;64406;50.024;14.492;2023-04-29T12:57:47;3.53;;;2.70;;
75787;SDS011;64406;50.024;14.492;2023-04-29T13:00:12;3.33;;;2.92;;
75787;SDS011;64406;50.024;14.492;2023-04-29T13:02:39;4.63;;;2.92;;
75787;SDS011;64406;50.024;14.492;2023-04-29T13:05:05;2.65;;;2.35;;
75787;SDS011;64406;50.024;14.492;2023-04-29T13:07:30;2.03;;;1.52;;
75787;SDS011;64406;50.024;14.492;2023-04-29T13:09:56;3.38;;;1.60;;
75787;SDS011;64406;50.024;14.492;2023-04-29T13:12:22;1.30;;;1.20;;
75787;SDS011;64406;50.024;14.492;2023-04-29T13:14:47;1.90;;;1.00;;
75787;SDS011;64406;50.024;14.492;2023-04-29T13:17:13;1.98;;;0.80;;
75787;SDS011;64406;50.024;14.492;2023-04-29T13:19:39;1.25;;;0.95;;
75787;SDS011;64406;50.024;14.492;2023-04-29T13:22:04;1.35;;;0.93;;
75787;SDS011;64406;50.024;14.492;2023-04-29T13:24:30;1.40;;;1.08;;
75787;SDS011;64406;50.024;14.492;2023-04-29T13:26:57;2.97;;;1.10;;
75787;SDS011;64406;50.024;14.492;2023-04-29T13:29:22;0.68;;;0.65;;
75787;SDS011;64406;50.024;14.492;2023-04-29T13:31:48;0.82;;;0.82;;
75787;SDS011;64406;50.024;14.492;2023-04-29T13:34:14;2.22;;;0.90;;
75787;SDS011;64406;50.024;14.492;2023-04-29T13:36:39;1.20;;;0.90;;
75787;SDS011;64406;50.024;14.492;2023-04-29T13:39:05;2.67;;;1.00;;
75787;SDS011;64406;50.024;14.492;2023-04-29T13:41:31;1.10;;;0.88;;
75787;SDS011;64406;50.024;14.492;2023-04-29T13:43:56;1.05;;;0.93;;
75787;SDS011;64406;50.024;14.492;2023-04-29T13:46:22;1.15;;;0.80;;
75787;SDS011;64406;50.024;14.492;2023-04-29T13:48:48;1.42;;;1.08;;
75787;SDS011;64406;50.024;14.492;2023-04-29T13:51:13;1.10;;;1.00;;
75787;SDS011;64406;50.024;14.492;2023-04-29T13:53:39;3.30;;;1.40;;
75787;SDS011;64406;50.024;14.492;2023-04-29T13:56:05;2.72;;;1.50;;
75787;SDS011;64406;50.024;14.492;2023-04-29T13:58:31;2.10;;;1.55;;
75787;SDS011;64406;50.024;14.492;2023-04-29T14:00:57;2.67;;;1.50;;
75787;SDS011;64406;50.024;14.492;2023-04-29T14:03:22;2.33;;;1.75;;
75787;SDS011;64406;50.024;14.492;2023-04-29T14:05:48;2.88;;;2.15;;
75787;SDS011;64406;50.024;14.492;2023-04-29T14:08:13;2.38;;;2.03;;
75787;SDS011;64406;50.024;14.492;2023-04-29T14:10:39;3.92;;;2.60;;
75787;SDS011;64406;50.024;14.492;2023-04-29T14:13:05;3.60;;;3.03;;
75787;SDS011;64406;50.024;14.492;2023-04-29T14:15:31;4.25;;;3.55;;
75787;SDS011;64406;50.024;14.492;2023-04-29T14:17:57;3.90;;;2.90;;
75787;SDS011;64406;50.024;14.492;2023-04-29T14:20:22;3.88;;;2.95;;
75787;SDS011;64406;50.024;14.492;2023-04-29T14:22:48;3.22;;;2.92;;
75787;SDS011;64406;50.024;14.492;2023-04-29T14:25:14;4.07;;;3.67;;
75787;SDS011;64406;50.024;14.492;2023-04-29T14:27:39;4.47;;;3.97;;
75787;SDS011;64406;50.024;14.492;2023-04-29T14:30:05;4.32;;;3.92;;
75787;SDS011;64406;50.024;14.492;2023-04-29T14:32:31;5.07;;;3.60;;
75787;SDS011;64406;50.024;14.492;2023-04-29T14:34:57;4.85;;;3.33;;
75787;SDS011;64406;50.024;14.492;2023-04-29T14:37:22;4.15;;;3.60;;
75787;SDS011;64406;50.024;14.492;2023-04-29T14:39:48;4.22;;;3.22;;
75787;SDS011;64406;50.024;14.492;2023-04-29T14:42:13;3.20;;;2.90;;
75787;SDS011;64406;50.024;14.492;2023-04-29T14:44:39;3.90;;;2.95;;
75787;SDS011;64406;50.024;14.492;2023-04-29T14:47:05;4.65;;;3.03;;
75787;SDS011;64406;50.024;14.492;2023-04-29T14:49:31;3.65;;;2.90;;
75787;SDS011;64406;50.024;14.492;2023-04-29T14:51:56;4.57;;;2.70;;
75787;SDS011;64406;50.024;14.492;2023-04-29T14:54:22;2.92;;;2.63;;
75787;SDS011;64406;50.024;14.492;2023-04-29T14:56:48;2.88;;;2.38;;